Time;durP1;ratioP1;P1;durP2;ratioP2;P2;SDS_P1;SDS_P2;PMS_P1;PMS_P2;Temp;Humidity;BMP_temperature;BMP_pressure;BME280_temperature;BME280_humidity;BME280_pressure;Samples;Min_cycle;Max_cycle;Signal;HPM_P1;HPM_P2
2023/11/07 00:01:32;;;;;;;11.30;1.60;;;;;;;9.24;92.23;99989.56;4850044;29;20031;-85
2023/11/07 00:04:20;;;;;;;10.18;1.08;;;;;;;9.25;91.91;99995.66;4843757;29;20042;-84
2023/11/07 00:06:52;;;;;;;5.20;1.02;;;10.40;99.90;;;9.20;91.60;99995.91;4865368;29;20164;-84
2023/11/07 00:09:41;;;;;;;9.60;1.77;;;10.40;99.90;;;9.13;91.78;99996.28;4815577;29;20080;-83
2023/11/07 00:12:52;;;;;;;7.45;1.10;;;10.30;99.90;;;9.02;91.82;99999.47;4806717;29;20034;-85
2023/11/07 00:15:21;;;;;;;7.07;1.20;;;10.20;99.90;;;8.96;91.54;99998.03;4772266;29;20454;-84
2023/11/07 00:18:13;;;;;;;11.38;1.27;;;10.20;99.90;;;8.87;92.14;100001.09;4788122;29;20060;-84
2023/11/07 00:20:42;;;;;;;8.60;1.17;;;;;;;8.78;92.66;100012.91;4744760;29;20058;-85
2023/11/07 00:24:10;;;;;;;5.00;0.98;;;10.00;99.90;;;8.65;93.59;100009.22;4752236;29;20037;-85
2023/11/07 00:27:21;;;;;;;6.88;1.05;;;;;;;8.58;94.13;100016.56;4791509;29;20049;-84
2023/11/07 00:29:31;;;;;;;7.68;1.30;;;;;;;8.56;94.31;100014.94;4838526;23;20504;-84
2023/11/07 00:35:02;;;;;;;7.93;1.27;;;;;;;8.44;95.60;100010.28;4830686;29;20550;-84
2023/11/07 00:37:32;;;;;;;6.88;1.05;;;9.70;99.90;;;8.40;95.44;100013.06;4795899;29;20048;-83
2023/11/07 00:43:33;;;;;;;16.25;1.40;;;;;;;8.31;96.29;100010.84;4838406;29;20037;-84
2023/11/07 00:46:03;;;;;;;7.03;1.10;;;;;;;8.28;96.89;100018.03;4812398;29;20077;-83
2023/11/07 00:48:41;;;;;;;5.88;1.40;;;;;;;8.26;97.14;100015.47;4864837;29;20090;-85
2023/11/07 00:51:33;;;;;;;11.95;1.30;;;;;;;8.19;96.80;100020.16;4838487;29;20051;-85
2023/11/07 00:54:02;;;;;;;15.10;1.60;;;;;;;8.15;97.44;100015.16;4789922;29;21062;-85
2023/11/07 00:57:10;;;;;;;10.15;1.25;;;9.40;99.90;;;8.14;97.68;100026.53;4792071;29;20072;-83
2023/11/07 00:59:41;;;;;;;;;;;9.40;99.90;;;8.06;98.34;100018.22;4829733;29;20048;-85
2023/11/07 01:02:13;;;;;;;4.35;1.25;;;9.40;99.90;;;8.01;98.79;100027.16;4818685;29;19927;-85
2023/11/07 01:04:41;;;;;;;6.82;1.63;;;;;;;7.99;98.85;100028.97;4820784;29;20116;-84
2023/11/07 01:07:18;;;;;;;;;;;;;;;;;;;;;
2023/11/07 01:10:13;;;;;;;11.80;1.30;;;9.30;99.90;;;7.99;99.61;100034.22;4874167;29;20065;-84
2023/11/07 01:12:39;;;;;;;8.35;1.17;;;9.30;99.90;;;7.96;99.45;100033.50;4940450;28;20421;-84
2023/11/07 01:18:31;;;;;;;6.65;1.35;;;9.20;99.90;;;7.86;100.00;100030.47;4868431;29;20145;-84
2023/11/07 01:21:11;;;;;;;5.47;1.25;;;;;;;7.91;100.00;100038.97;4858240;29;20673;-84
2023/11/07 01:23:50;;;;;;;7.18;1.20;;;;;;;7.91;100.00;100044.22;4829739;29;20044;-84
2023/11/07 01:26:19;;;;;;;10.50;1.85;;;;;;;7.90;100.00;100045.13;4803998;29;20532;-84
2023/11/07 01:28:52;;;;;;;12.27;1.85;;;9.20;99.90;;;7.91;100.00;100049.47;4795828;29;20045;-83
2023/11/07 01:31:22;;;;;;;9.52;1.40;;;9.20;99.90;;;7.92;99.95;100055.53;4798858;29;20096;-85
2023/11/07 01:33:59;;;;;;;8.85;1.40;;;9.10;99.90;;;7.86;100.00;100054.06;4823072;29;20065;-84
2023/11/07 01:36:27;;;;;;;9.00;1.55;;;9.10;99.90;;;7.83;100.00;100051.56;4835030;29;20038;-84
2023/11/07 01:38:54;;;;;;;8.13;1.33;;;9.10;99.90;;;7.76;100.00;100052.78;4864061;29;20055;-83
2023/11/07 01:41:44;;;;;;;10.07;1.25;;;;;;;7.77;100.00;100050.06;4773756;29;20054;-85
2023/11/07 01:44:13;;;;;;;6.93;1.33;;;;;;;7.75;100.00;100051.06;4799695;29;20043;-85
2023/11/07 01:47:23;;;;;;;9.32;1.52;;;9.00;99.90;;;7.72;100.00;100054.69;4819659;29;20046;-84
2023/11/07 01:50:00;;;;;;;7.57;1.80;;;;;;;7.72;100.00;100057.31;4770007;29;20035;-85
2023/11/07 01:52:53;;;;;;;6.88;1.40;;;;;;;7.70;100.00;100068.78;4791545;29;20040;-84
2023/11/07 01:55:22;;;;;;;11.45;1.45;;;;;;;7.71;100.00;100068.72;4886796;29;20562;-84
2023/11/07 01:58:19;;;;;;;9.95;1.52;;;9.00;99.90;;;7.74;100.00;100071.19;4851507;29;20510;-85
2023/11/07 02:00:52;;;;;;;7.50;1.90;;;9.00;99.90;;;7.76;100.00;100068.50;4853451;29;20052;-85
2023/11/07 02:03:33;;;;;;;11.13;1.48;;;;;;;7.78;100.00;100077.16;4854987;29;21572;-84
2023/11/07 02:06:01;;;;;;;8.00;1.85;;;9.00;99.90;;;7.75;100.00;100064.16;4870366;29;20052;-82
2023/11/07 02:08:53;;;;;;;17.08;1.90;;;;;;;7.74;100.00;100078.22;4826886;29;20053;-84
2023/11/07 02:11:24;;;;;;;15.40;1.75;;;9.00;99.90;;;7.69;100.00;100074.94;4815572;29;20119;-85
2023/11/07 02:13:58;;;;;;;9.70;1.55;;;;;;;7.64;100.00;100077.75;4736910;29;20037;-84
2023/11/07 02:16:24;;;;;;;6.00;1.52;;;8.90;99.90;;;7.58;100.00;100085.88;4849058;29;20073;-84
2023/11/07 02:18:53;;;;;;;14.57;1.85;;;8.80;99.90;;;7.51;100.00;100079.22;4832198;29;20038;-85
2023/11/07 02:22:03;;;;;;;8.68;2.03;;;8.80;99.90;;;7.55;100.00;100086.88;4797610;29;20034;-84
2023/11/07 02:24:41;;;;;;;10.95;2.58;;;8.90;99.90;;;7.59;100.00;100088.44;4812482;29;20170;-85
2023/11/07 02:28:11;;;;;;;5.50;1.95;;;8.90;99.90;;;7.58;100.00;100086.75;4789673;29;20041;-85
2023/11/07 02:30:43;;;;;;;12.05;1.60;;;;;;;7.65;100.00;100087.34;4725842;29;20034;-84
2023/11/07 02:33:14;;;;;;;8.93;1.85;;;;;;;7.69;100.00;100081.03;4796386;29;20127;-85
2023/11/07 02:36:12;;;;;;;7.53;1.60;;;;;;;7.73;100.00;100093.09;4773911;29;20063;-85
2023/11/07 02:38:50;;;;;;;10.43;1.80;;;9.00;99.90;;;7.75;100.00;100090.38;4791736;29;20062;-85
2023/11/07 02:41:44;;;;;;;6.40;1.73;;;;;;;7.80;100.00;100098.91;4799854;29;20394;-84
2023/11/07 02:44:12;;;;;;;11.50;2.15;;;9.10;99.90;;;7.83;100.00;100090.03;4754235;29;22425;-84
2023/11/07 02:46:51;;;;;;;9.90;2.38;;;9.10;99.90;;;7.87;100.00;100087.22;4760732;29;20216;-84
2023/11/07 02:49:41;;;;;;;9.38;1.83;;;9.10;99.90;;;7.93;100.00;100083.47;4820648;23;20035;-85
2023/11/07 02:52:10;;;;;;;9.73;1.90;;;;;;;7.92;100.00;100082.59;4836729;28;20043;-84
2023/11/07 02:54:51;;;;;;;12.65;2.50;;;9.20;99.90;;;7.95;100.00;100085.09;4908554;28;20666;-84
2023/11/07 02:57:41;;;;;;;7.35;1.92;;;9.20;99.90;;;7.97;100.00;100093.75;4850030;29;20049;-84
2023/11/07 03:03:51;;;;;;;9.77;2.17;;;;;;;8.00;100.00;100088.34;4735105;29;20050;-84
2023/11/07 03:06:52;;;;;;;8.15;2.00;;;9.30;99.90;;;7.99;100.00;100085.78;4767785;29;20043;-85
2023/11/07 03:09:42;;;;;;;13.35;2.30;;;9.30;99.90;;;8.05;100.00;100096.00;4727539;30;20047;-85
2023/11/07 03:12:12;;;;;;;8.95;2.10;;;;;;;8.09;100.00;100096.72;4736478;30;20516;-85
2023/11/07 03:15:01;;;;;;;8.90;1.98;;;9.40;99.90;;;8.14;100.00;100099.97;4670631;30;20544;-85
2023/11/07 03:18:33;;;;;;;14.73;2.22;;;9.40;99.90;;;8.17;100.00;100095.44;4651989;30;20068;-85
2023/11/07 03:21:12;;;;;;;14.80;2.25;;;;;;;8.20;100.00;100100.53;4503773;30;4954728;-85
2023/11/07 03:36:15;;;;;;;15.77;2.38;;;;;;;8.25;100.00;100100.34;5031050;27;21450;-83
2023/11/07 03:38:52;;;;;;;9.20;2.10;;;;;;;8.22;100.00;100097.84;5000655;28;20037;-84
2023/11/07 03:41:33;;;;;;;15.13;2.25;;;9.50;99.90;;;8.18;100.00;100099.75;5037280;28;20064;-84
2023/11/07 03:44:34;;;;;;;;;;;;;;;;;;;;;
2023/11/07 03:47:39;;;;;;;14.70;2.35;;;9.40;99.90;;;8.14;100.00;100097.34;4882986;28;20627;-84
2023/11/07 03:50:32;;;;;;;16.52;2.80;;;;;;;8.10;100.00;100098.41;4901779;28;20043;-85
2023/11/07 03:53:13;;;;;;;10.75;2.13;;;9.40;99.90;;;8.10;100.00;100101.03;4877642;28;20524;-83
2023/11/07 03:55:51;;;;;;;18.23;2.55;;;9.40;99.90;;;8.04;100.00;100101.34;4901600;28;20035;-84
2023/11/07 03:59:00;;;;;;;11.63;2.53;;;9.30;99.90;;;8.02;100.00;100104.84;4856061;28;20024;-84
2023/11/07 04:01:42;;;;;;;14.35;2.88;;;;;;;7.99;100.00;100112.00;4824402;29;20044;-83
2023/11/07 04:04:43;;;;;;;10.65;2.83;;;;;;;7.96;100.00;100110.38;4846156;29;20044;-84
2023/11/07 04:07:35;;;;;;;9.68;2.17;;;9.30;99.90;;;7.96;100.00;100118.25;4810439;29;20062;-84
2023/11/07 04:10:13;;;;;;;9.88;2.55;;;9.20;99.90;;;7.90;100.00;100113.28;4801914;29;20056;-84
2023/11/07 04:13:13;;;;;;;12.70;2.90;;;;;;;7.91;100.00;100119.41;4831329;29;20411;-83
2023/11/07 04:15:51;;;;;;;10.38;2.35;;;9.20;99.90;;;7.88;100.00;100116.88;4809076;29;20088;-82
2023/11/07 04:24:12;;;;;;;8.52;2.20;;;9.10;99.90;;;7.89;100.00;100108.97;4993243;28;20414;-83
2023/11/07 04:27:22;;;;;;;16.83;3.13;;;9.20;99.90;;;7.92;100.00;100131.56;4917298;28;20054;-84
2023/11/07 04:31:19;;;;;;;17.33;2.88;;;8.80;99.90;;;7.88;100.00;100132.63;4937493;28;20045;-85
2023/11/07 04:33:48;;;;;;;13.73;3.70;;;;;;;7.92;100.00;100142.91;4932013;28;20053;-82
2023/11/07 04:36:23;;;;;;;23.90;4.28;;;9.20;99.90;;;7.95;100.00;100142.78;4969609;28;20042;-83
2023/11/07 04:41:30;;;;;;;16.40;5.32;;;;;;;8.02;100.00;100138.09;4950310;28;20058;-84
2023/11/07 04:44:05;;;;;;;;;;;;;;;;;;;;;
2023/11/07 04:46:32;;;;;;;12.30;3.17;;;9.30;99.90;;;8.07;100.00;100140.50;4980127;28;20034;-84
2023/11/07 04:49:00;;;;;;;16.27;4.25;;;;;;;8.07;100.00;100137.88;4880044;28;20042;-82
2023/11/07 04:51:52;;;;;;;17.38;3.22;;;9.30;99.90;;;8.07;100.00;100145.75;4919173;28;20035;-83
2023/11/07 04:54:52;;;;;;;13.40;2.75;;;9.30;99.90;;;8.09;100.00;100147.38;4979152;28;20061;-85
2023/11/07 04:57:42;;;;;;;14.13;3.30;;;9.30;99.90;;;8.06;100.00;100144.91;4916761;28;20053;-84
2023/11/07 05:00:12;;;;;;;18.73;3.83;;;9.30;99.90;;;8.12;100.00;100152.50;4955453;28;20038;-84
2023/11/07 05:02:51;;;;;;;15.63;3.10;;;;;;;8.10;100.00;100148.22;4895985;28;20038;-83
2023/11/07 05:06:13;;;;;;;11.07;2.38;;;9.40;99.90;;;8.15;100.00;100154.13;4922562;28;20066;-84
2023/11/07 05:08:41;;;;;;;8.20;2.25;;;9.40;99.90;;;8.19;100.00;100146.03;4886015;28;20073;-84
2023/11/07 05:12:13;;;;;;;13.77;2.70;;;9.40;99.90;;;8.21;100.00;100148.59;4921758;28;20059;-83
2023/11/07 05:18:02;;;;;;;13.48;3.20;;;9.50;99.90;;;8.24;100.00;100161.56;4837592;29;20054;-84
2023/11/07 05:20:51;;;;;;;9.95;2.25;;;9.50;99.90;;;8.28;100.00;100152.63;4775216;29;20057;-84
2023/11/07 05:23:48;;;;;;;7.90;2.08;;;9.50;99.90;;;8.30;100.00;100145.56;4755461;29;20052;-83
2023/11/07 05:26:30;;;;;;;;;;;9.60;99.90;;;8.32;100.00;100145.50;4793788;29;20548;-85
2023/11/07 05:29:33;;;;;;;10.20;2.63;;;9.60;99.90;;;8.36;100.00;100154.94;4747011;29;19921;-81
2023/11/07 05:32:48;;;;;;;;;;;;;;;;;;;;;
2023/11/07 05:37:44;;;;;;;11.40;2.80;;;9.70;99.90;;;8.43;98.72;100156.34;5016053;28;20044;-80
2023/11/07 05:40:13;;;;;;;11.10;3.22;;;9.70;99.90;;;8.44;98.70;100159.81;5004669;28;20104;-80
2023/11/07 05:42:45;;;;;;;13.52;2.95;;;9.70;99.90;;;8.43;98.66;100161.59;5014108;28;20079;-80
2023/11/07 05:45:12;;;;;;;14.05;3.03;;;9.70;99.90;;;8.43;98.42;100174.72;4982705;28;20136;-80
2023/11/07 05:47:41;;;;;;;14.50;2.78;;;9.60;99.90;;;8.45;98.30;100172.88;4993481;28;20033;-80
2023/11/07 05:50:12;;;;;;;12.40;3.03;;;9.70;99.90;;;8.44;98.49;100167.69;4978203;28;20040;-81
2023/11/07 05:52:37;;;;;;;15.68;3.20;;;9.60;99.90;;;8.39;98.20;100166.09;4977032;28;20652;-81
2023/11/07 05:55:06;;;;;;;11.60;3.28;;;9.60;99.90;;;8.35;98.43;100179.44;4980711;28;20041;-81
2023/11/07 05:57:32;;;;;;;10.63;3.33;;;9.60;99.90;;;8.29;98.60;100172.69;5013523;28;20041;-80
2023/11/07 06:00:06;;;;;;;10.82;3.25;;;9.50;99.90;;;8.26;98.59;100179.88;4985217;28;20095;-81
2023/11/07 06:02:33;;;;;;;14.18;3.50;;;9.50;99.90;;;8.21;98.87;100174.84;4992200;28;20072;-80
2023/11/07 06:04:59;;;;;;;12.45;2.97;;;;;;;8.16;99.34;100171.56;4947365;28;20608;-81
2023/11/07 06:07:27;;;;;;;16.83;3.60;;;9.40;99.90;;;8.11;99.68;100170.91;5013798;28;20041;-80
2023/11/07 06:10:00;;;;;;;13.43;3.25;;;9.40;99.90;;;8.09;100.00;100172.75;4939433;28;20049;-79
2023/11/07 06:12:26;;;;;;;16.08;3.78;;;9.40;99.90;;;8.06;100.00;100178.16;4950299;28;20060;-80
2023/11/07 06:14:51;;;;;;;15.75;3.35;;;9.30;99.90;;;8.06;100.00;100188.66;4970820;28;20042;-80
2023/11/07 06:17:17;;;;;;;18.38;3.35;;;9.30;99.90;;;8.07;100.00;100192.94;5003530;28;20025;-80
2023/11/07 06:19:50;;;;;;;14.63;3.28;;;9.30;99.90;;;8.12;100.00;100190.97;4958964;28;20041;-80
2023/11/07 06:22:16;;;;;;;13.35;3.92;;;9.40;99.90;;;8.13;100.00;100200.56;4969994;28;20045;-80
2023/11/07 06:24:43;;;;;;;13.43;4.10;;;9.40;99.90;;;8.21;100.00;100203.69;4992384;28;20708;-80
2023/11/07 06:27:08;;;;;;;8.57;2.58;;;9.40;99.90;;;8.21;100.00;100207.16;4986840;23;20047;-80
2023/11/07 06:29:47;;;;;;;14.85;3.47;;;9.50;99.90;;;8.26;100.00;100201.69;4949720;28;20037;-80
2023/11/07 06:32:18;;;;;;;17.35;3.38;;;9.50;99.90;;;8.27;100.00;100211.28;4937974;28;20065;-80
2023/11/07 06:34:44;;;;;;;16.08;3.50;;;9.60;99.90;;;8.33;100.00;100213.59;4964647;28;20112;-80
2023/11/07 06:37:10;;;;;;;14.05;3.58;;;9.60;99.90;;;8.32;100.00;100214.53;4964707;28;20516;-80
2023/11/07 06:39:36;;;;;;;14.55;3.35;;;9.60;99.90;;;8.39;100.00;100213.31;4980710;28;20045;-80
2023/11/07 06:42:02;;;;;;;8.43;2.95;;;9.60;99.90;;;8.44;100.00;100218.38;4948192;28;20056;-80
2023/11/07 06:44:28;;;;;;;15.73;3.58;;;9.70;99.90;;;8.47;100.00;100217.44;4953354;28;20760;-80
2023/11/07 06:46:59;;;;;;;14.88;3.45;;;9.70;99.90;;;8.50;100.00;100217.28;4943318;28;20040;-79
2023/11/07 06:49:25;;;;;;;13.75;3.15;;;9.70;99.90;;;8.51;100.00;100229.44;4953623;28;20041;-81
2023/11/07 06:51:51;;;;;;;17.67;3.80;;;9.70;99.90;;;8.51;100.00;100237.31;4946012;28;21469;-80
2023/11/07 06:54:17;;;;;;;13.05;3.17;;;9.70;99.90;;;8.48;100.00;100238.31;4972059;28;20647;-82
2023/11/07 06:56:44;;;;;;;16.95;3.60;;;9.80;99.90;;;8.52;100.00;100236.41;4973146;28;20032;-80
2023/11/07 06:59:18;;;;;;;14.65;4.32;;;9.80;99.90;;;8.57;99.64;100234.41;4964596;28;20132;-80
2023/11/07 07:01:47;;;;;;;11.55;3.05;;;9.80;99.90;;;8.58;100.00;100244.00;4983495;28;20041;-80
2023/11/07 07:04:13;;;;;;;12.90;3.13;;;9.80;99.90;;;8.62;99.57;100233.31;4906703;28;20053;-81
2023/11/07 07:06:47;;;;;;;14.48;2.95;;;9.80;99.90;;;8.62;99.34;100237.72;5000807;23;20626;-81
2023/11/07 07:09:13;;;;;;;13.80;3.05;;;9.80;99.90;;;8.59;99.07;100237.81;4993300;28;20049;-81
2023/11/07 07:11:40;;;;;;;10.93;2.75;;;9.80;99.90;;;8.62;99.22;100235.09;4966988;28;20056;-81
2023/11/07 07:14:15;;;;;;;12.20;2.60;;;9.80;99.90;;;8.65;99.27;100234.09;4968709;28;20060;-81
2023/11/07 07:16:41;;;;;;;17.67;3.17;;;9.90;99.90;;;8.65;99.71;100240.19;4956887;28;20529;-81
2023/11/07 07:19:07;;;;;;;15.23;3.25;;;9.90;99.90;;;8.68;99.38;100247.91;4961811;28;20033;-81
2023/11/07 07:21:39;;;;;;;9.80;2.88;;;9.90;99.90;;;8.72;99.30;100257.34;5014526;28;20650;-81
2023/11/07 07:24:15;;;;;;;7.80;1.98;;;10.00;99.90;;;8.74;99.26;100246.78;4994341;28;20064;-80
2023/11/07 07:26:45;;;;;;;11.75;2.67;;;10.00;99.90;;;8.77;99.03;100254.53;4943610;23;20584;-80
2023/11/07 07:29:14;;;;;;;18.67;2.75;;;10.00;99.90;;;8.81;98.87;100256.06;4927158;28;20112;-80
2023/11/07 07:31:41;;;;;;;13.23;2.83;;;10.10;99.90;;;8.88;98.28;100254.88;4928755;28;20032;-81
2023/11/07 07:34:13;;;;;;;9.82;2.10;;;10.10;99.90;;;8.91;98.04;100264.38;4905224;28;20114;-80
2023/11/07 07:36:47;;;;;;;11.88;2.53;;;10.10;99.90;;;8.92;97.93;100266.06;4969266;28;20129;-79
2023/11/07 07:39:34;;;;;;;11.80;2.50;;;10.20;99.90;;;8.96;97.83;100267.63;4915047;28;20047;-81
2023/11/07 07:42:00;;;;;;;;;;;10.20;99.90;;;8.98;97.87;100268.38;4973407;28;20042;-80
2023/11/07 07:44:27;;;;;;;14.52;3.47;;;10.20;99.90;;;8.98;97.90;100263.13;4950587;28;19917;-81
2023/11/07 07:47:01;;;;;;;14.38;2.53;;;10.20;99.90;;;9.01;97.91;100260.38;4971020;23;20046;-82
2023/11/07 07:49:32;;;;;;;13.35;2.38;;;10.20;99.90;;;9.08;97.65;100261.78;4967964;28;20113;-81
2023/11/07 07:52:05;;;;;;;14.98;2.08;;;10.30;99.90;;;9.11;97.92;100266.88;5023606;28;20032;-82
2023/11/07 07:54:31;;;;;;;12.43;2.50;;;10.30;99.90;;;9.10;97.27;100259.09;4947656;28;20048;-81
2023/11/07 07:56:56;;;;;;;15.23;2.55;;;10.40;99.90;;;9.14;97.17;100273.78;4969092;28;20483;-82
2023/11/07 07:59:23;;;;;;;10.30;2.25;;;10.30;99.90;;;9.15;96.97;100278.09;4960935;28;20034;-80
2023/11/07 08:02:01;;;;;;;14.18;2.47;;;10.40;99.90;;;9.19;96.92;100277.88;4966241;28;20034;-81
2023/11/07 08:04:46;;;;;;;12.50;2.45;;;10.40;99.90;;;9.19;96.78;100274.41;4984598;28;20032;-82
2023/11/07 08:07:18;;;;;;;21.38;2.30;;;10.40;99.90;;;9.18;96.87;100268.31;4988521;23;20050;-82
2023/11/07 08:09:44;;;;;;;14.23;2.00;;;10.50;99.90;;;9.23;96.81;100275.97;4992243;28;20056;-80
2023/11/07 08:12:11;;;;;;;10.05;2.30;;;10.50;99.90;;;9.29;96.67;100277.44;4963700;28;20038;-81
2023/11/07 08:14:37;;;;;;;13.70;2.25;;;10.50;99.90;;;9.33;96.49;100279.84;4942344;28;20048;-81
2023/11/07 08:17:12;;;;;;;9.25;2.30;;;10.60;99.90;;;9.39;96.29;100292.66;4916047;28;20117;-80
2023/11/07 08:19:38;;;;;;;15.18;2.08;;;10.60;99.90;;;9.41;96.36;100285.56;4918680;28;20069;-81
2023/11/07 08:22:06;;;;;;;6.80;1.80;;;10.60;99.90;;;9.41;95.41;100285.56;4962785;28;20042;-80
2023/11/07 08:24:35;;;;;;;13.65;1.80;;;10.60;99.90;;;9.43;95.67;100296.00;4916813;28;20035;-80
2023/11/07 08:27:01;;;;;;;10.98;1.45;;;10.70;99.90;;;9.46;95.00;100293.25;4973178;23;20034;-80
2023/11/07 08:29:27;;;;;;;12.60;1.75;;;10.70;99.90;;;9.51;94.59;100301.75;4948099;28;20058;-80
2023/11/07 08:31:53;;;;;;;10.50;1.80;;;10.70;99.90;;;9.55;94.57;100298.06;5006806;28;20034;-80
2023/11/07 08:34:22;;;;;;;10.68;1.90;;;10.70;99.90;;;9.52;94.27;100292.09;4981826;28;20060;-80
2023/11/07 08:36:53;;;;;;;11.82;1.60;;;10.80;99.90;;;9.53;93.77;100299.91;4961319;28;20033;-80
2023/11/07 08:42:10;;;;;;;9.57;1.58;;;10.70;99.90;;;9.51;93.23;100306.16;4962481;28;20034;-80
2023/11/07 08:44:36;;;;;;;9.15;1.85;;;10.70;99.90;;;9.49;93.52;100306.22;4941067;28;20106;-81
2023/11/07 08:47:02;;;;;;;13.57;1.70;;;10.80;99.90;;;9.55;93.29;100311.19;4957983;28;20043;-80
2023/11/07 08:49:27;;;;;;;11.80;1.77;;;10.80;99.90;;;9.56;93.47;100315.50;4971291;28;20049;-81
2023/11/07 08:51:57;;;;;;;8.55;1.60;;;10.80;99.90;;;9.58;93.23;100318.91;4967199;28;20034;-81
2023/11/07 08:54:29;;;;;;;11.02;1.60;;;10.80;99.90;;;9.61;93.39;100316.16;4935484;28;20567;-81
2023/11/07 08:56:55;;;;;;;12.52;2.13;;;10.80;99.90;;;9.64;93.15;100318.63;4933352;28;20052;-81
2023/11/07 08:59:21;;;;;;;10.10;1.48;;;10.90;99.90;;;9.64;92.87;100316.00;4949701;28;20456;-81
2023/11/07 09:04:37;;;;;;;7.25;1.65;;;10.90;99.90;;;9.75;92.44;100322.50;4951442;28;20132;-80
2023/11/07 09:07:04;;;;;;;8.85;1.60;;;10.90;99.90;;;9.73;92.09;100332.25;4964970;23;20047;-80
2023/11/07 09:09:30;;;;;;;7.88;1.60;;;10.90;99.90;;;9.75;91.47;100333.03;4999920;28;20048;-80
2023/11/07 09:11:56;;;;;;;9.55;1.70;;;11.00;99.90;;;9.77;91.33;100333.78;4992941;28;20026;-80
2023/11/07 09:14:22;;;;;;;10.13;1.50;;;11.00;99.90;;;9.80;91.20;100333.63;4972093;28;20045;-79
2023/11/07 09:16:50;;;;;;;7.65;1.52;;;11.00;99.90;;;9.84;91.46;100341.28;4979973;28;20050;-80
2023/11/07 09:19:18;;;;;;;9.75;1.80;;;11.00;99.90;;;9.82;91.02;100343.13;4949506;28;20190;-80
2023/11/07 09:21:44;;;;;;;9.48;1.70;;;11.00;99.90;;;9.84;91.00;100335.19;4967573;28;20590;-80
2023/11/07 09:24:10;;;;;;;8.52;1.58;;;11.10;99.90;;;9.86;90.90;100346.47;4956157;28;20182;-81
2023/11/07 09:26:36;;;;;;;14.32;2.03;;;11.10;99.90;;;9.86;91.24;100344.69;4976098;23;20075;-80
2023/11/07 09:29:11;;;;;;;6.40;1.50;;;11.10;99.90;;;9.85;90.95;100348.25;4987112;28;20129;-80
2023/11/07 09:31:40;;;;;;;13.77;1.70;;;11.10;99.90;;;9.86;90.44;100349.94;5001452;28;20076;-80
2023/11/07 09:34:14;;;;;;;6.90;1.45;;;11.10;99.90;;;9.90;90.88;100361.19;4998584;28;20037;-80
2023/11/07 09:36:41;;;;;;;10.95;1.85;;;11.20;99.90;;;9.95;90.56;100355.69;5009423;28;20037;-81
2023/11/07 09:39:07;;;;;;;7.78;1.73;;;11.20;99.90;;;10.01;90.43;100361.50;4996518;28;20045;-81
2023/11/07 09:41:41;;;;;;;8.10;1.95;;;11.20;99.90;;;10.07;90.87;100369.09;4988862;28;20505;-80
2023/11/07 09:44:10;;;;;;;12.13;1.63;;;11.30;99.90;;;10.06;89.70;100362.13;4962390;28;20051;-81
2023/11/07 09:46:44;;;;;;;10.10;1.38;;;11.30;99.90;;;10.13;89.89;100372.31;4976059;28;20105;-80
2023/11/07 09:49:13;;;;;;;9.27;1.60;;;11.30;99.90;;;10.23;89.69;100360.41;4972851;28;20038;-80
2023/11/07 09:51:46;;;;;;;9.95;1.73;;;11.40;99.90;;;10.29;89.02;100359.25;4956190;28;20038;-80
2023/11/07 09:54:25;;;;;;;9.52;1.77;;;11.50;99.90;;;10.37;88.86;100371.13;5009105;28;20415;-80
2023/11/07 09:56:54;;;;;;;6.22;1.48;;;11.50;99.90;;;10.40;88.19;100365.69;4987335;28;20061;-81
2023/11/07 09:59:54;;;;;;;12.18;1.85;;;11.60;99.90;;;10.46;87.93;100367.16;4991893;28;20037;-80
2023/11/07 10:02:27;;;;;;;4.40;1.38;;;11.60;99.90;;;10.45;87.14;100375.97;4987578;28;20112;-81
2023/11/07 10:04:57;;;;;;;7.10;1.45;;;11.70;99.90;;;10.53;86.79;100378.22;4979266;28;20042;-80
2023/11/07 10:07:23;;;;;;;7.32;1.27;;;11.70;99.90;;;10.54;86.70;100362.34;4982578;28;20049;-80
2023/11/07 10:09:55;;;;;;;9.35;1.98;;;11.70;99.90;;;10.58;86.62;100378.81;5001596;28;20034;-80
2023/11/07 10:12:21;;;;;;;7.85;1.50;;;11.70;99.90;;;10.53;86.23;100373.81;4991293;28;20044;-80
2023/11/07 10:14:53;;;;;;;5.20;1.40;;;11.70;99.90;;;10.50;85.80;100370.50;4941383;28;20065;-80
2023/11/07 10:17:23;;;;;;;9.32;1.23;;;11.70;99.90;;;10.50;86.12;100370.50;4964212;28;20060;-81
2023/11/07 10:20:05;;;;;;;5.65;1.75;;;11.70;99.90;;;10.44;86.18;100364.59;4999856;28;20056;-82
2023/11/07 10:22:45;;;;;;;9.80;1.40;;;11.70;99.90;;;10.44;86.12;100366.41;4987111;28;20039;-80
2023/11/07 10:25:31;;;;;;;9.07;2.03;;;11.60;99.90;;;10.45;85.76;100368.06;4993785;28;20035;-80
2023/11/07 10:28:08;;;;;;;7.65;1.40;;;11.70;99.90;;;10.45;86.10;100366.31;4980113;28;20029;-80
2023/11/07 10:30:44;;;;;;;13.90;1.95;;;11.70;99.90;;;10.56;85.32;100372.78;4974603;28;20045;-80
2023/11/07 10:33:25;;;;;;;8.95;1.75;;;11.80;99.90;;;10.67;85.35;100367.84;4987613;28;20042;-82
2023/11/07 10:36:04;;;;;;;10.05;1.70;;;11.90;99.90;;;10.67;84.48;100365.19;5009691;28;20037;-81
2023/11/07 10:38:37;;;;;;;9.85;1.60;;;11.90;99.90;;;10.66;83.51;100374.00;4981872;28;20500;-80
2023/11/07 10:41:24;;;;;;;10.32;1.40;;;11.90;99.90;;;10.66;82.69;100356.44;4976914;28;20516;-80
2023/11/07 10:43:50;;;;;;;;;;;11.90;99.90;;;10.65;83.00;100367.06;4984368;28;20034;-82
2023/11/07 10:46:21;;;;;;;7.03;1.27;;;11.90;99.90;;;10.67;82.27;100365.19;4976065;28;19925;-80
2023/11/07 10:48:53;;;;;;;8.65;2.42;;;11.90;99.90;;;10.78;83.59;100376.00;4980154;28;20432;-80
2023/11/07 10:51:20;;;;;;;10.07;1.85;;;11.90;99.90;;;10.82;82.97;100372.28;4972091;28;20040;-80
2023/11/07 10:53:46;;;;;;;6.55;1.58;;;12.00;99.90;;;10.78;81.92;100376.00;4975707;28;20145;-80
2023/11/07 10:56:26;;;;;;;5.25;1.73;;;12.00;99.90;;;10.87;83.00;100372.03;4969589;28;20037;-80
2023/11/07 10:59:00;;;;;;;4.50;1.17;;;12.10;99.90;;;10.86;82.33;100379.09;4978853;28;20056;-80
2023/11/07 11:01:33;;;;;;;10.98;2.05;;;12.10;99.90;;;10.96;82.25;100383.88;4989097;28;20037;-80
2023/11/07 11:04:14;;;;;;;5.68;1.63;;;12.10;99.90;;;10.95;82.35;100382.16;4979269;28;20038;-82
2023/11/07 11:06:52;;;;;;;6.32;1.40;;;12.10;99.90;;;10.87;81.54;100393.94;4999247;28;20041;-80
2023/11/07 11:09:27;;;;;;;7.32;1.63;;;12.10;99.90;;;10.90;82.75;100387.66;4995757;28;20037;-80
2023/11/07 11:12:04;;;;;;;8.30;1.60;;;12.20;99.90;;;11.05;82.14;100392.09;4972025;28;20484;-82
2023/11/07 11:14:30;;;;;;;7.90;1.40;;;12.20;99.90;;;11.06;81.63;100382.44;4970531;28;20045;-80
2023/11/07 11:17:33;;;;;;;5.50;1.30;;;12.30;99.90;;;11.16;81.92;100396.78;4991913;28;20046;-81
2023/11/07 11:20:38;;;;;;;6.97;1.60;;;12.30;99.90;;;11.20;82.01;100393.06;4979619;28;20069;-81
2023/11/07 11:23:44;;;;;;;9.52;1.83;;;12.40;99.90;;;11.22;81.49;100396.47;4969205;28;20066;-80
2023/11/07 11:26:29;;;;;;;10.50;1.50;;;12.40;99.90;;;11.15;81.21;100389.00;4912909;28;20080;-81
2023/11/07 11:28:56;;;;;;;8.65;1.70;;;12.30;99.90;;;11.03;80.29;100395.75;4935737;28;20570;-79
2023/11/07 11:31:47;;;;;;;7.13;1.77;;;12.20;99.90;;;10.93;79.91;100389.28;4914215;28;20057;-80
2023/11/07 11:34:28;;;;;;;9.45;1.88;;;12.20;99.90;;;10.92;80.82;100387.59;4957573;28;20054;-80
2023/11/07 11:37:04;;;;;;;10.43;2.22;;;12.10;99.90;;;10.87;81.11;100393.94;4913541;28;20031;-81
2023/11/07 11:39:33;;;;;;;7.83;1.60;;;12.00;99.90;;;10.83;81.19;100396.84;4909987;28;20059;-81
2023/11/07 11:42:05;;;;;;;7.43;1.38;;;12.00;99.90;;;10.90;82.32;100400.00;4913306;28;20279;-80
2023/11/07 11:44:44;;;;;;;7.15;1.45;;;12.10;99.90;;;10.91;82.14;100389.38;4912136;28;20035;-81
2023/11/07 11:47:49;;;;;;;5.70;1.48;;;12.10;99.90;;;10.89;80.93;100399.16;4903348;28;20030;-80
2023/11/07 11:50:17;;;;;;;9.20;1.40;;;12.10;99.90;;;10.88;80.28;100398.31;4890205;28;20035;-80
2023/11/07 11:52:43;;;;;;;6.75;1.02;;;12.10;99.90;;;10.88;80.70;100402.69;4920111;28;20031;-81
2023/11/07 11:55:12;;;;;;;8.05;1.50;;;12.10;99.90;;;10.86;80.38;100399.28;4941829;28;20109;-81
2023/11/07 11:58:23;;;;;;;7.72;1.40;;;12.10;99.90;;;10.93;80.21;100411.22;4915485;28;20041;-80
2023/11/07 12:00:53;;;;;;;4.38;1.10;;;12.10;99.90;;;10.95;79.45;100408.50;4912177;28;20466;-81